Time;durP1;ratioP1;P1;durP2;ratioP2;P2;SDS_P1;SDS_P2;PMS_P1;PMS_P2;Temp;Humidity;BMP_temperature;BMP_pressure;BME280_temperature;BME280_humidity;BME280_pressure;Samples;Min_cycle;Max_cycle;Signal;HPM_P1;HPM_P2
2023/04/27 00:00:22;;;;;;;0.20;0.20;;;;;;;18.92;40.64;101590.34;5097776;28;20048;-48
2023/04/27 00:02:48;;;;;;;0.30;0.30;;;;;;;18.91;40.92;101587.84;5089764;28;20043;-45
2023/04/27 00:05:14;;;;;;;0.30;0.30;;;;;;;18.93;40.61;101593.94;5092514;28;20044;-45
2023/04/27 00:07:40;;;;;;;0.20;0.20;;;;;;;18.91;40.72;101588.69;5109612;28;20051;-47
2023/04/27 00:10:06;;;;;;;0.20;0.20;;;;;;;18.92;40.72;101595.88;5103612;28;20057;-46
2023/04/27 00:12:32;;;;;;;0.25;0.25;;;;;;;18.92;40.92;101595.88;5087842;28;20485;-45
2023/04/27 00:14:58;;;;;;;0.28;0.28;;;;;;;18.93;40.74;101596.69;5115465;28;20043;-46
2023/04/27 00:17:23;;;;;;;0.20;0.20;;;;;;;18.91;40.84;101590.59;5115715;28;20103;-48
2023/04/27 00:19:49;;;;;;;0.28;0.28;;;;;;;18.92;40.83;101595.88;5092910;28;20500;-47
2023/04/27 00:22:15;;;;;;;0.30;0.30;;;;;;;18.92;40.96;101604.16;5092841;28;20059;-45
2023/04/27 00:24:41;;;;;;;0.30;0.30;;;;;;;18.91;40.72;101596.13;5094795;28;20100;-45
2023/04/27 00:27:06;;;;;;;0.30;0.30;;;;;;;18.91;40.70;101587.84;5104073;28;20047;-45
2023/04/27 00:29:32;;;;;;;0.30;0.30;;;;;;;18.91;40.57;101599.72;5109189;28;20046;-46
2023/04/27 00:31:58;;;;;;;0.30;0.30;;;;;;;18.91;40.82;101609.91;5094397;28;20440;-46
2023/04/27 00:34:23;;;;;;;0.30;0.30;;;;;;;18.91;40.64;101602.50;5094347;28;20051;-46
2023/04/27 00:36:49;;;;;;;0.30;0.30;;;;;;;18.91;40.87;101607.16;5101612;28;20533;-46
2023/04/27 00:39:15;;;;;;;0.30;0.30;;;;;;;18.92;40.63;101615.19;5101038;28;20048;-45
2023/04/27 00:41:41;;;;;;;0.20;0.20;;;;;;;18.92;40.71;101617.94;5094810;28;20043;-45
2023/04/27 00:44:07;;;;;;;0.30;0.30;;;;;;;18.91;40.74;101616.28;5093723;28;20865;-46
2023/04/27 00:46:33;;;;;;;0.30;0.30;;;;;;;18.91;40.86;101609.91;5099032;28;20050;-47
2023/04/27 00:48:59;;;;;;;0.22;0.22;;;;;;;18.91;40.97;101601.63;5114095;28;20055;-45
2023/04/27 00:51:28;;;;;;;0.20;0.20;;;;;;;18.91;40.55;101593.34;5093575;28;20051;-45
2023/04/27 00:53:56;;;;;;;0.20;0.20;;;;;;;18.90;41.07;101600.81;5094444;28;20047;-45
2023/04/27 00:56:22;;;;;;;0.20;0.20;;;;;;;18.92;40.71;101595.88;5096044;28;20090;-47
2023/04/27 00:58:48;;;;;;;0.22;0.22;;;;;;;18.91;41.00;101601.63;5115152;28;20047;-46
2023/04/27 01:01:14;;;;;;;0.30;0.30;;;;;;;18.91;41.00;101598.88;5095547;28;21423;-49
2023/04/27 01:03:40;;;;;;;0.20;0.20;;;;;;;18.91;41.03;101604.41;5093079;28;20454;-46
2023/04/27 01:06:06;;;;;;;0.30;0.30;;;;;;;18.90;40.98;101600.81;5095204;28;20063;-46
2023/04/27 01:08:32;;;;;;;0.30;0.30;;;;;;;18.90;41.01;101598.03;5113320;28;20170;-45
2023/04/27 01:10:58;;;;;;;0.20;0.20;;;;;;;18.89;40.90;101598.31;5099585;28;20084;-45
2023/04/27 01:13:23;;;;;;;0.28;0.28;;;;;;;18.91;40.72;101598.88;5094907;28;20516;-46
2023/04/27 01:15:49;;;;;;;0.20;0.20;;;;;;;18.90;40.82;101603.56;5094373;28;20469;-46
2023/04/27 01:18:15;;;;;;;0.20;0.20;;;;;;;18.90;41.09;101605.50;5112871;28;20411;-45
2023/04/27 01:20:41;;;;;;;0.20;0.20;;;;;;;18.90;40.73;101603.56;5100253;28;20043;-45
2023/04/27 01:23:06;;;;;;;0.20;0.20;;;;;;;18.89;40.92;101599.16;5094565;28;20093;-47
2023/04/27 01:25:32;;;;;;;0.20;0.20;;;;;;;18.90;40.76;101598.03;5094303;28;20290;-45
2023/04/27 01:27:58;;;;;;;0.30;0.30;;;;;;;18.90;40.92;101605.50;5075272;28;20054;-46
2023/04/27 01:30:24;;;;;;;0.20;0.20;;;;;;;18.90;41.04;101600.81;5084194;28;20539;-47
2023/04/27 01:32:49;;;;;;;0.30;0.30;;;;;;;18.90;40.94;101599.97;5094213;28;20551;-46
2023/04/27 01:35:15;;;;;;;0.20;0.20;;;;;;;18.90;40.84;101605.50;5094120;28;20138;-45
2023/04/27 01:37:41;;;;;;;0.20;0.20;;;;;;;18.90;40.94;101605.50;5108256;28;20054;-45
2023/04/27 01:40:07;;;;;;;0.30;0.30;;;;;;;18.89;40.98;101606.59;5104524;28;20055;-45
2023/04/27 01:42:33;;;;;;;0.20;0.20;;;;;;;18.90;40.96;101608.25;5093349;28;20081;-46
2023/04/27 01:44:59;;;;;;;0.20;0.20;;;;;;;18.89;41.11;101614.88;5093892;28;20051;-46
2023/04/27 01:47:26;;;;;;;0.20;0.20;;;;;;;18.89;41.02;101615.72;5094614;28;20039;-45
2023/04/27 01:49:52;;;;;;;0.20;0.20;;;;;;;18.90;41.07;101613.78;5088550;28;20542;-44
2023/04/27 01:52:17;;;;;;;0.20;0.20;;;;;;;18.89;40.84;101614.88;5093687;28;20146;-47
2023/04/27 01:54:43;;;;;;;0.20;0.20;;;;;;;18.88;40.92;101619.56;5075711;28;20457;-46
2023/04/27 01:57:09;;;;;;;0.20;0.20;;;;;;;18.89;40.86;101620.41;5084870;28;20050;-48
2023/04/27 01:59:34;;;;;;;0.20;0.20;;;;;;;18.89;40.97;101615.72;5091704;28;20055;-47
2023/04/27 02:02:00;;;;;;;0.20;0.20;;;;;;;18.89;41.15;101614.88;5074757;28;20055;-45
2023/04/27 02:04:26;;;;;;;0.20;0.20;;;;;;;18.89;40.85;101628.69;5093634;28;20043;-46
2023/04/27 02:06:52;;;;;;;0.20;0.20;;;;;;;18.89;40.97;101624.00;5100516;28;20036;-47
2023/04/27 02:09:17;;;;;;;0.20;0.20;;;;;;;18.90;41.01;101624.81;5096916;28;20100;-46
2023/04/27 02:11:43;;;;;;;0.20;0.20;;;;;;;18.88;40.92;101622.34;5113107;28;20043;-46
2023/04/27 02:14:09;;;;;;;0.25;0.25;;;;;;;18.89;40.93;101620.41;5100517;28;20043;-46
2023/04/27 02:16:34;;;;;;;0.20;0.20;;;;;;;18.89;40.96;101618.47;5098394;28;20043;-46
2023/04/27 02:19:00;;;;;;;0.22;0.22;;;;;;;18.89;40.94;101614.88;5113376;28;20055;-45
2023/04/27 02:21:27;;;;;;;0.20;0.20;;;;;;;18.89;41.01;101623.16;5076147;28;20047;-45
2023/04/27 02:23:52;;;;;;;0.30;0.30;;;;;;;18.88;40.97;101627.84;5092814;28;20075;-49
2023/04/27 02:26:19;;;;;;;0.20;0.20;;;;;;;18.88;40.85;101630.59;5096091;28;20047;-45
2023/04/27 02:28:46;;;;;;;0.20;0.20;;;;;;;18.88;40.82;101625.09;5094754;28;20069;-46
2023/04/27 02:31:13;;;;;;;0.20;0.20;;;;;;;18.89;41.15;101621.22;5078492;28;20052;-47
2023/04/27 02:33:40;;;;;;;0.30;0.30;;;;;;;18.89;41.04;101629.50;5092847;28;20051;-46
2023/04/27 02:36:07;;;;;;;0.20;0.20;;;;;;;18.88;41.07;101625.09;5094103;28;20050;-45
2023/04/27 02:38:33;;;;;;;0.30;0.30;;;;;;;18.89;41.15;101620.41;5113590;28;20078;-46
2023/04/27 02:40:58;;;;;;;0.20;0.20;;;;;;;18.88;41.10;101625.09;5099129;28;20043;-47
2023/04/27 02:43:24;;;;;;;0.20;0.20;;;;;;;18.88;41.10;101627.03;5091778;28;20522;-46
2023/04/27 02:45:50;;;;;;;0.20;0.20;;;;;;;18.88;40.85;101616.81;5093383;28;20500;-45
2023/04/27 02:48:15;;;;;;;0.20;0.20;;;;;;;18.88;41.03;101616.81;5101280;28;20457;-46
2023/04/27 02:50:42;;;;;;;0.20;0.20;;;;;;;18.88;41.07;101614.06;5083682;28;20192;-45
2023/04/27 02:53:08;;;;;;;0.30;0.30;;;;;;;18.88;40.77;101608.53;5093155;28;20055;-47
2023/04/27 02:55:34;;;;;;;0.30;0.30;;;;;;;18.88;40.84;101602.19;5074836;28;20078;-45
2023/04/27 02:57:59;;;;;;;0.20;0.20;;;;;;;18.87;41.08;101598.59;5110014;28;20047;-47
2023/04/27 03:00:25;;;;;;;0.20;0.20;;;;;;;18.88;40.85;101602.19;5104122;28;20043;-47
2023/04/27 03:02:51;;;;;;;0.20;0.20;;;;;;;18.87;41.16;101598.59;5092957;28;20058;-48
2023/04/27 03:05:17;;;;;;;0.20;0.20;;;;;;;18.87;40.91;101600.50;5093487;28;20193;-46
2023/04/27 03:07:43;;;;;;;0.20;0.20;;;;;;;18.87;40.87;101598.59;5099959;28;20399;-47
2023/04/27 03:10:09;;;;;;;0.20;0.20;;;;;;;18.87;40.96;101592.22;5094540;28;20104;-47
2023/04/27 03:12:35;;;;;;;0.20;0.20;;;;;;;18.87;40.75;101592.22;5056885;28;20490;-47
2023/04/27 03:15:00;;;;;;;0.20;0.20;;;;;;;18.87;40.78;101592.22;5072873;28;20075;-47
2023/04/27 03:17:26;;;;;;;0.20;0.20;;;;;;;18.88;40.78;101591.16;5104305;28;20504;-48
2023/04/27 03:19:52;;;;;;;0.20;0.20;;;;;;;18.87;41.00;101604.13;5108620;28;20454;-48
2023/04/27 03:22:18;;;;;;;0.20;0.20;;;;;;;18.87;41.20;101606.88;5092453;28;20067;-47
2023/04/27 03:24:44;;;;;;;0.20;0.20;;;;;;;18.86;40.99;101602.41;5090933;28;20046;-49
2023/04/27 03:27:10;;;;;;;0.20;0.20;;;;;;;18.87;41.16;101608.78;5102273;28;20039;-46
2023/04/27 03:29:36;;;;;;;0.20;0.20;;;;;;;18.87;40.96;101606.88;5112263;28;20540;-46
2023/04/27 03:32:03;;;;;;;0.28;0.28;;;;;;;18.86;41.10;101605.19;5092346;28;20479;-46
2023/04/27 03:34:29;;;;;;;0.20;0.20;;;;;;;18.86;40.70;101607.94;5090947;28;20051;-48
2023/04/27 03:36:55;;;;;;;0.20;0.20;;;;;;;18.87;40.92;101600.50;5099955;28;20081;-47
2023/04/27 03:39:21;;;;;;;0.20;0.20;;;;;;;18.88;40.94;101607.69;5094863;28;20054;-47
2023/04/27 03:41:47;;;;;;;0.28;0.28;;;;;;;18.87;40.79;101604.13;5096709;28;20044;-48
2023/04/27 03:44:13;;;;;;;0.20;0.20;;;;;;;18.88;41.01;101602.19;5094957;28;20043;-48
2023/04/27 03:46:38;;;;;;;0.20;0.20;;;;;;;18.87;41.09;101601.34;5101180;28;20556;-47
2023/04/27 03:49:04;;;;;;;0.20;0.20;;;;;;;18.87;40.82;101606.88;5111234;28;20048;-48
2023/04/27 03:51:32;;;;;;;0.20;0.20;;;;;;;18.86;41.11;101607.13;5094872;28;20586;-47
2023/04/27 03:53:58;;;;;;;0.20;0.20;;;;;;;18.86;40.77;101613.47;5095321;28;20285;-47
2023/04/27 03:56:23;;;;;;;0.30;0.30;;;;;;;18.86;41.20;101605.19;5098782;28;20518;-48
2023/04/27 03:58:49;;;;;;;0.20;0.20;;;;;;;18.86;40.77;101607.94;5116724;28;20046;-47
2023/04/27 04:01:15;;;;;;;0.20;0.20;;;;;;;18.86;41.17;101618.97;5102184;28;20062;-46
2023/04/27 04:03:41;;;;;;;0.20;0.20;;;;;;;18.86;40.78;101618.97;5096261;28;20090;-46
2023/04/27 04:06:07;;;;;;;0.20;0.20;;;;;;;18.88;40.86;101629.78;5096113;28;20296;-48
2023/04/27 04:08:33;;;;;;;0.20;0.20;;;;;;;18.87;40.73;101628.09;5116562;28;20055;-48
2023/04/27 04:10:59;;;;;;;0.20;0.20;;;;;;;18.87;41.04;101631.72;5069775;28;20479;-46
2023/04/27 04:13:25;;;;;;;0.20;0.20;;;;;;;18.86;40.88;101630.03;5095476;28;20047;-47
2023/04/27 04:16:08;;;;;;;0.20;0.20;;;;;;;18.87;41.05;101633.59;5095532;28;20075;-47
2023/04/27 04:18:34;;;;;;;0.20;0.20;;;;;;;18.87;40.79;101636.38;5081472;28;20536;-47
2023/04/27 04:21:01;;;;;;;0.20;0.20;;;;;;;18.86;40.86;101632.78;5086625;28;20116;-49
2023/04/27 04:23:26;;;;;;;0.20;0.20;;;;;;;18.86;41.04;101629.19;5060310;28;20043;-47
2023/04/27 04:25:55;;;;;;;0.20;0.20;;;;;;;18.86;41.25;101626.44;5095224;28;20053;-49
2023/04/27 04:28:21;;;;;;;;;;;;;;;18.87;40.95;101636.38;5114991;28;20100;-47
2023/04/27 04:30:47;;;;;;;0.22;0.22;;;;;;;18.85;41.06;101638.56;5107233;28;19981;-46
2023/04/27 04:33:12;;;;;;;0.20;0.20;;;;;;;18.85;40.74;101635.81;5095191;28;20485;-47
2023/04/27 04:35:40;;;;;;;0.30;0.30;;;;;;;18.85;40.85;101636.63;5094914;28;20415;-47
2023/04/27 04:38:06;;;;;;;0.20;0.20;;;;;;;18.86;41.03;101637.47;5112315;28;20067;-47
2023/04/27 04:40:31;;;;;;;0.25;0.25;;;;;;;18.87;40.49;101633.59;5084695;28;20392;-48
2023/04/27 04:42:57;;;;;;;0.20;0.20;;;;;;;18.86;40.34;101648.50;5098857;28;20048;-47
2023/04/27 04:45:23;;;;;;;0.20;0.20;;;;;;;18.86;40.76;101646.56;5088173;28;20446;-48
2023/04/27 04:47:48;;;;;;;0.30;0.30;;;;;;;18.86;41.04;101643.81;5103836;28;20051;-47
2023/04/27 04:50:14;;;;;;;0.20;0.20;;;;;;;18.86;40.94;101637.47;5087888;28;20396;-47
2023/04/27 04:52:40;;;;;;;0.30;0.30;;;;;;;18.87;40.82;101642.75;5080348;28;20466;-47
2023/04/27 04:55:06;;;;;;;0.30;0.30;;;;;;;18.87;40.75;101640.00;5086109;28;20039;-48
2023/04/27 04:57:31;;;;;;;0.20;0.20;;;;;;;18.85;41.17;101642.16;5094735;28;20409;-48
2023/04/27 04:59:57;;;;;;;0.20;0.20;;;;;;;18.85;40.94;101649.63;5083181;28;20048;-49
2023/04/27 05:02:23;;;;;;;0.20;0.20;;;;;;;18.84;41.06;101650.72;5093260;28;20044;-47
2023/04/27 05:04:50;;;;;;;0.20;0.20;;;;;;;18.84;41.03;101654.31;5088573;28;20039;-47
2023/04/27 05:07:16;;;;;;;0.20;0.20;;;;;;;18.84;40.75;101646.03;5089902;28;20111;-47
2023/04/27 05:09:48;;;;;;;0.20;0.20;;;;;;;18.84;40.96;101648.78;5115227;28;20374;-47
2023/04/27 05:12:14;;;;;;;0.30;0.30;;;;;;;18.85;41.09;101663.41;5094492;28;20043;-47
2023/04/27 05:14:40;;;;;;;0.20;0.20;;;;;;;18.84;41.26;101657.06;5094273;28;20043;-50
2023/04/27 05:17:05;;;;;;;0.30;0.30;;;;;;;18.85;41.16;101655.13;5100503;28;20050;-47
2023/04/27 05:19:31;;;;;;;0.20;0.20;;;;;;;18.84;40.93;101661.75;5092564;28;20051;-47
2023/04/27 05:21:57;;;;;;;0.20;0.20;;;;;;;18.84;40.89;101661.75;5093862;28;20047;-49
2023/04/27 05:24:25;;;;;;;0.20;0.20;;;;;;;18.85;40.43;101652.38;5075417;28;20397;-46
2023/04/27 05:26:50;;;;;;;0.30;0.30;;;;;;;18.85;39.59;101649.63;5077859;28;20078;-47
2023/04/27 05:29:16;;;;;;;0.20;0.20;;;;;;;18.85;40.60;101655.97;5113961;28;20046;-46
2023/04/27 05:31:42;;;;;;;0.20;0.20;;;;;;;18.84;40.89;101662.59;5099349;28;20047;-47
2023/04/27 05:34:08;;;;;;;0.20;0.20;;;;;;;18.84;40.88;101665.34;5093458;28;20055;-47
2023/04/27 05:36:35;;;;;;;0.20;0.20;;;;;;;18.83;40.84;101666.44;5089696;28;20523;-48
2023/04/27 05:39:01;;;;;;;0.30;0.30;;;;;;;18.84;40.20;101662.59;5100428;28;20055;-47
2023/04/27 05:41:28;;;;;;;0.30;0.30;;;;;;;18.83;40.63;101674.72;5083712;28;20483;-47
2023/04/27 05:43:54;;;;;;;0.30;0.30;;;;;;;18.69;41.25;101673.41;5082775;28;20036;-45
2023/04/27 05:46:20;;;;;;;0.20;0.20;;;;;;;18.54;41.27;101674.91;5081343;28;20054;-46
2023/04/27 05:48:46;;;;;;;0.20;0.20;;;;;;;18.43;41.39;101673.13;5097365;28;20501;-44
2023/04/27 05:51:12;;;;;;;0.20;0.20;;;;;;;18.39;41.12;101674.72;5103398;28;20154;-44
2023/04/27 05:53:37;;;;;;;0.22;0.22;;;;;;;18.44;41.77;101676.75;5071190;28;20522;-44
2023/04/27 05:56:05;;;;;;;0.25;0.25;;;;;;;18.39;42.03;101683.00;5090057;28;20043;-45
2023/04/27 05:58:32;;;;;;;0.20;0.20;;;;;;;18.44;41.52;101685.00;5090623;28;20044;-45
2023/04/27 06:00:58;;;;;;;0.30;0.30;;;;;;;18.41;41.61;101682.75;5071247;28;20044;-48
2023/04/27 06:03:24;;;;;;;0.20;0.20;;;;;;;18.61;41.46;101679.38;5054947;28;20053;-47
2023/04/27 06:05:55;;;;;;;0.30;0.30;;;;;;;18.71;41.58;101688.66;5060850;28;20101;-48
2023/04/27 06:08:24;;;;;;;0.20;0.20;;;;;;;18.76;41.35;101696.16;5090408;28;20669;-48
2023/04/27 06:10:50;;;;;;;0.20;0.20;;;;;;;18.78;41.48;101692.06;5072425;28;20256;-48
2023/04/27 06:13:16;;;;;;;0.20;0.20;;;;;;;18.80;41.16;101687.09;5081213;28;20052;-47
2023/04/27 06:15:42;;;;;;;0.30;0.30;;;;;;;18.83;41.25;101690.44;5089317;28;20044;-48
2023/04/27 06:18:08;;;;;;;0.20;0.20;;;;;;;18.84;41.46;101692.13;5086225;28;20434;-48
2023/04/27 06:20:33;;;;;;;0.20;0.20;;;;;;;18.84;41.57;101681.06;5079329;28;20063;-47
2023/04/27 06:23:00;;;;;;;0.20;0.20;;;;;;;18.87;41.26;101684.16;5083744;28;20047;-50
2023/04/27 06:25:27;;;;;;;0.20;0.20;;;;;;;18.87;41.12;101686.03;5085981;28;20496;-49
2023/04/27 06:27:55;;;;;;;0.20;0.20;;;;;;;18.87;41.54;101686.03;5074823;28;20530;-48
2023/04/27 06:30:21;;;;;;;0.20;0.20;;;;;;;18.88;41.18;101676.69;5065330;28;20403;-48
2023/04/27 06:32:47;;;;;;;3.30;0.50;;;;;;;18.88;41.59;101677.53;5084532;28;20044;-47
2023/04/27 06:35:13;;;;;;;0.30;0.30;;;;;;;18.88;41.47;101673.94;5082905;28;20479;-49
2023/04/27 06:37:39;;;;;;;0.20;0.20;;;;;;;18.89;41.27;101681.13;5088159;28;20047;-50
2023/04/27 06:40:05;;;;;;;0.22;0.22;;;;;;;18.91;41.31;101678.91;5091549;28;20248;-43
2023/04/27 06:42:31;;;;;;;0.20;0.20;;;;;;;18.91;41.25;101682.53;5081697;28;20051;-48
2023/04/27 06:44:57;;;;;;;0.20;0.20;;;;;;;18.94;41.49;101689.44;5078091;28;20059;-49
2023/04/27 06:47:23;;;;;;;0.20;0.20;;;;;;;18.93;41.32;101682.25;5079836;28;20306;-48
2023/04/27 06:49:49;;;;;;;0.20;0.20;;;;;;;18.93;41.62;101687.78;5085152;28;20131;-46
2023/04/27 06:52:15;;;;;;;0.20;0.20;;;;;;;18.93;41.40;101685.84;5075574;28;20043;-47
2023/04/27 06:54:41;;;;;;;0.20;0.20;;;;;;;18.97;41.34;101691.69;5043981;28;20083;-48
2023/04/27 06:57:07;;;;;;;0.40;0.40;;;;;;;18.96;41.15;101681.75;5075959;28;20083;-47
2023/04/27 06:59:33;;;;;;;0.20;0.20;;;;;;;18.97;40.93;101686.16;5075021;28;20054;-48
2023/04/27 07:01:58;;;;;;;0.20;0.20;;;;;;;18.96;41.03;101673.47;5048810;28;20836;-47
2023/04/27 07:04:24;;;;;;;0.28;0.28;;;;;;;18.96;40.70;101682.59;5066761;28;20060;-47
2023/04/27 07:06:50;;;;;;;0.20;0.20;;;;;;;18.75;39.70;101680.72;5059982;28;20044;-48
2023/04/27 07:09:16;;;;;;;0.30;0.30;;;;;;;18.91;40.61;101678.91;5052431;28;20371;-48
2023/04/27 07:11:52;;;;;;;0.20;0.20;;;;;;;18.94;40.29;101682.00;5058015;28;20062;-48
2023/04/27 07:14:18;;;;;;;0.20;0.20;;;;;;;18.93;39.37;101680.34;5062373;28;20237;-47
2023/04/27 07:16:44;;;;;;;0.20;0.20;;;;;;;18.91;39.25;101678.91;5076158;28;20068;-47
2023/04/27 07:19:09;;;;;;;0.28;0.28;;;;;;;18.94;39.27;101681.16;5088551;28;20043;-47
2023/04/27 07:21:35;;;;;;;0.30;0.30;;;;;;;18.93;38.25;101679.50;5084091;28;20066;-50
2023/04/27 07:24:01;;;;;;;0.20;0.20;;;;;;;18.91;38.59;101681.69;5082230;28;20059;-49
2023/04/27 07:26:27;;;;;;;0.20;0.20;;;;;;;18.94;38.29;101670.94;5085230;28;20051;-49
2023/04/27 07:28:53;;;;;;;0.20;0.20;;;;;;;18.94;38.34;101676.47;5086063;28;20040;-47
2023/04/27 07:31:19;;;;;;;0.20;0.20;;;;;;;18.95;38.34;101685.59;5084398;28;20153;-49
2023/04/27 07:33:45;;;;;;;0.20;0.20;;;;;;;18.92;38.25;101678.69;5097396;28;20066;-48
2023/04/27 07:36:11;;;;;;;0.30;0.30;;;;;;;18.95;39.49;101677.31;5088179;28;20489;-49
2023/04/27 07:38:37;;;;;;;0.20;0.20;;;;;;;18.93;38.22;101683.09;5080251;28;20511;-49
2023/04/27 07:41:04;;;;;;;0.20;0.20;;;;;;;18.95;38.28;101683.66;5074235;28;20051;-47
2023/04/27 07:43:31;;;;;;;0.20;0.20;;;;;;;18.94;37.96;101686.69;5084402;28;20496;-47
2023/04/27 07:45:57;;;;;;;0.28;0.28;;;;;;;18.95;38.13;101696.63;5082901;28;20048;-48
2023/04/27 07:48:23;;;;;;;0.20;0.20;;;;;;;18.94;37.65;101683.91;5091549;28;20438;-48
2023/04/27 07:50:49;;;;;;;0.30;0.30;;;;;;;18.93;37.12;101679.50;5074296;28;20079;-47
2023/04/27 07:53:15;;;;;;;0.20;0.20;;;;;;;18.93;37.92;101679.50;5067861;28;20446;-51
2023/04/27 07:55:43;;;;;;;0.20;0.20;;;;;;;18.91;37.50;101678.91;5093956;28;20066;-48
2023/04/27 07:58:09;;;;;;;0.30;0.30;;;;;;;18.94;38.03;101670.13;5084413;28;20066;-48
2023/04/27 08:00:35;;;;;;;0.30;0.30;;;;;;;18.95;38.32;101671.78;5067939;28;20046;-48
2023/04/27 08:03:01;;;;;;;0.20;0.20;;;;;;;18.95;38.36;101672.59;5082346;28;20347;-47
2023/04/27 08:05:27;;;;;;;0.20;0.20;;;;;;;18.97;38.62;101666.84;5072926;28;20044;-47
2023/04/27 08:07:54;;;;;;;0.28;0.28;;;;;;;18.99;38.59;101670.16;5077214;27;20252;-47
2023/04/27 08:10:20;;;;;;;0.30;0.30;;;;;;;18.99;38.81;101670.16;5075857;28;20075;-47
2023/04/27 08:12:46;;;;;;;0.20;0.20;;;;;;;19.00;38.44;101669.09;5077630;28;20535;-52
2023/04/27 08:15:11;;;;;;;0.30;0.30;;;;;;;18.98;38.18;101663.81;5072384;28;20458;-47
2023/04/27 08:17:40;;;;;;;0.20;0.20;;;;;;;18.98;38.52;101668.50;5083980;28;20143;-51
2023/04/27 08:20:10;;;;;;;0.20;0.20;;;;;;;18.98;38.29;101661.06;5073116;28;20044;-50
2023/04/27 08:22:37;;;;;;;0.20;0.20;;;;;;;18.99;38.51;101659.94;5049917;28;20070;-48
2023/04/27 08:25:03;;;;;;;0.20;0.20;;;;;;;18.99;37.82;101653.59;5072239;28;20056;-47
2023/04/27 08:27:29;;;;;;;0.20;0.20;;;;;;;18.99;38.35;101656.38;5076355;28;20078;-48
2023/04/27 08:29:55;;;;;;;0.20;0.20;;;;;;;18.99;38.14;101651.66;5082586;28;20062;-48
2023/04/27 08:32:21;;;;;;;0.20;0.20;;;;;;;18.97;38.23;101644.75;5075574;28;20055;-50
2023/04/27 08:34:46;;;;;;;0.22;0.22;;;;;;;18.91;37.34;101648.56;5076485;28;20774;-45
2023/04/27 08:37:12;;;;;;;0.20;0.20;;;;;;;17.75;34.06;101644.16;5065575;27;20044;-59
2023/04/27 08:39:38;;;;;;;0.30;0.30;;;;;;;18.22;36.35;101649.16;5067842;27;20052;-48
2023/04/27 08:42:11;;;;;;;0.20;0.20;;;;;;;18.61;35.42;101643.53;5066012;28;20772;-47
2023/04/27 08:44:41;;;;;;;0.20;0.20;;;;;;;18.77;36.09;101654.50;5054444;28;20047;-50
2023/04/27 08:47:07;;;;;;;0.20;0.20;;;;;;;18.84;36.04;101653.47;5090679;28;20311;-49
2023/04/27 08:49:34;;;;;;;0.20;0.20;;;;;;;18.87;35.89;101644.66;5075366;28;20052;-51
2023/04/27 08:52:00;;;;;;;0.20;0.20;;;;;;;18.89;35.73;101648.00;5080245;28;20507;-48
2023/04/27 08:54:26;;;;;;;0.30;0.30;;;;;;;18.92;36.64;101641.97;5046473;28;20407;-47
2023/04/27 08:56:52;;;;;;;0.20;0.20;;;;;;;18.92;35.68;101653.84;5062246;28;20510;-49
2023/04/27 08:59:17;;;;;;;0.20;0.20;;;;;;;18.93;36.01;101638.94;5086684;28;20431;-48
2023/04/27 09:01:45;;;;;;;0.20;0.20;;;;;;;18.94;36.39;101643.34;5084329;28;20052;-47
2023/04/27 09:04:10;;;;;;;0.20;0.20;;;;;;;18.95;36.35;101639.50;5061578;28;20047;-48
2023/04/27 09:06:37;;;;;;;0.20;0.20;;;;;;;18.96;36.29;101632.91;5083631;28;20149;-48
2023/04/27 09:09:02;;;;;;;0.30;0.30;;;;;;;18.95;36.64;101635.91;5081256;28;20051;-47
2023/04/27 09:14:21;;;;;;;0.20;0.20;;;;;;;19.02;36.74;101628.25;5130568;27;20762;-47
2023/04/27 09:16:56;;;;;;;0.20;0.20;;;;;;;19.01;36.85;101634.88;5115638;27;20038;-47
2023/04/27 09:19:25;;;;;;;0.20;0.20;;;;;;;19.03;37.14;101627.97;5134855;27;20154;-48
2023/04/27 09:22:03;;;;;;;0.20;0.20;;;;;;;18.98;36.39;101632.63;5114308;27;20119;-49
2023/04/27 09:24:29;;;;;;;0.20;0.20;;;;;;;19.00;36.50;101633.22;5132247;27;20727;-49
2023/04/27 09:26:55;;;;;;;0.30;0.30;;;;;;;19.02;36.62;101637.34;5135467;27;20047;-50
2023/04/27 09:29:31;;;;;;;0.30;0.30;;;;;;;19.03;36.15;101632.66;5139802;27;20069;-48
2023/04/27 09:31:56;;;;;;;0.40;0.40;;;;;;;19.03;36.70;101627.13;5129692;27;20166;-49
2023/04/27 09:34:22;;;;;;;0.30;0.30;;;;;;;19.04;36.73;101631.56;5110844;27;20094;-48
2023/04/27 09:36:48;;;;;;;0.30;0.30;;;;;;;19.04;36.78;101626.03;5103472;27;20495;-54
2023/04/27 09:39:15;;;;;;;0.30;0.30;;;;;;;19.05;37.32;101622.22;5104233;27;20047;-47
2023/04/27 09:41:41;;;;;;;0.20;0.20;;;;;;;18.84;33.46;101623.94;5104249;27;20197;-48
2023/04/27 09:44:07;;;;;;;0.30;0.30;;;;;;;18.97;34.31;101622.69;5106451;27;20039;-49
2023/04/27 09:46:33;;;;;;;0.30;0.30;;;;;;;19.02;34.97;101623.56;5111537;27;20061;-51
2023/04/27 09:49:00;;;;;;;0.25;0.25;;;;;;;19.01;34.18;101630.19;5110619;27;20058;-48
2023/04/27 09:51:27;;;;;;;0.30;0.30;;;;;;;19.02;34.93;101619.97;5081790;27;20066;-49
2023/04/27 09:53:55;;;;;;;0.30;0.30;;;;;;;19.04;35.53;101615.00;5124496;27;20266;-49
2023/04/27 09:57:01;;;;;;;0.20;0.20;;;;;;;19.05;34.11;101613.94;5114564;27;20609;-52
2023/04/27 09:59:39;;;;;;;0.30;0.30;;;;;;;19.03;34.63;101614.16;5089408;27;20050;-48
2023/04/27 10:02:05;;;;;;;;;;;;;;;19.04;34.49;101613.09;5117090;27;20066;-50
2023/04/27 10:05:13;;;;;;;0.20;0.20;;;;;;;18.89;32.34;101601.91;5120177;27;19929;-45
2023/04/27 10:07:40;;;;;;;0.30;0.30;;;;;;;19.03;33.67;101597.59;5104523;27;20049;-48
2023/04/27 10:10:06;;;;;;;0.28;0.28;;;;;;;19.07;34.35;101599.84;5112077;27;20131;-47
2023/04/27 10:12:35;;;;;;;0.30;0.30;;;;;;;19.08;34.29;101598.75;5119444;27;20100;-47
2023/04/27 10:15:11;;;;;;;0.30;0.30;;;;;;;19.06;34.65;101596.25;5085379;27;20072;-48
2023/04/27 10:17:37;;;;;;;0.20;0.20;;;;;;;19.07;34.71;101597.09;5118953;27;20039;-51
2023/04/27 10:20:06;;;;;;;0.25;0.25;;;;;;;19.08;34.72;101585.78;5120645;27;20553;-47
2023/04/27 10:22:41;;;;;;;0.20;0.20;;;;;;;19.09;34.80;101581.94;5100887;27;20541;-47
2023/04/27 10:25:28;;;;;;;0.30;0.30;;;;;;;19.07;33.99;101583.28;5104721;27;20608;-48
2023/04/27 10:27:56;;;;;;;0.20;0.20;;;;;;;19.06;35.12;101574.16;5094848;28;20152;-48
2023/04/27 10:30:23;;;;;;;;;;;;;;;19.11;35.77;101573.38;5107340;27;20289;-48
2023/04/27 10:32:50;;;;;;;0.30;0.30;;;;;;;19.12;33.78;101583.31;5104346;27;20178;-47
2023/04/27 10:35:16;;;;;;;0.20;0.20;;;;;;;19.13;34.88;101580.31;5100305;27;20392;-48
2023/04/27 10:37:42;;;;;;;0.30;0.30;;;;;;;19.12;35.05;101581.38;5092697;27;20627;-48
2023/04/27 10:40:13;;;;;;;0.30;0.30;;;;;;;19.12;35.34;101577.78;5076008;27;20047;-48
2023/04/27 10:42:40;;;;;;;0.30;0.30;;;;;;;19.13;35.46;101576.69;5083552;27;20051;-47
2023/04/27 10:45:06;;;;;;;0.30;0.30;;;;;;;19.15;35.87;101569.00;5068826;27;20057;-48
2023/04/27 10:47:37;;;;;;;0.20;0.20;;;;;;;19.14;36.37;101565.41;5083052;27;20090;-52
2023/04/27 10:50:04;;;;;;;0.30;0.30;;;;;;;19.14;35.54;101570.09;5072896;28;20050;-48
2023/04/27 10:52:30;;;;;;;0.20;0.20;;;;;;;19.14;35.38;101567.34;5100055;27;20068;-50
2023/04/27 10:54:56;;;;;;;0.30;0.30;;;;;;;19.13;35.28;101558.22;5081724;28;20051;-48
2023/04/27 10:57:22;;;;;;;0.20;0.20;;;;;;;19.15;35.36;101561.53;5076424;28;20509;-47
2023/04/27 10:59:50;;;;;;;0.20;0.20;;;;;;;19.15;34.75;101557.94;5100283;27;21212;-47
2023/04/27 11:02:16;;;;;;;;;;;;;;;19.15;35.39;101558.78;5085926;28;20443;-48
2023/04/27 11:04:41;;;;;;;0.20;0.20;;;;;;;19.14;35.40;101575.63;5106407;27;20686;-48
2023/04/27 11:07:08;;;;;;;0.30;0.30;;;;;;;19.14;35.06;101567.34;5100952;27;20126;-48
2023/04/27 11:09:36;;;;;;;0.30;0.30;;;;;;;19.15;35.19;101563.47;5102313;27;20081;-48
2023/04/27 11:12:05;;;;;;;0.20;0.20;;;;;;;19.15;35.95;101561.53;5088884;28;20176;-48
2023/04/27 11:14:31;;;;;;;0.20;0.20;;;;;;;19.15;35.56;101567.06;5086301;27;21219;-47
2023/04/27 11:16:57;;;;;;;0.20;0.20;;;;;;;19.15;35.57;101561.53;5099042;28;20043;-50
2023/04/27 11:19:23;;;;;;;0.30;0.30;;;;;;;19.15;35.06;101553.25;5084425;27;20616;-48
2023/04/27 11:21:48;;;;;;;0.20;0.20;;;;;;;19.15;35.44;101558.78;5110632;27;20039;-51
2023/04/27 11:24:14;;;;;;;0.20;0.20;;;;;;;19.14;34.54;101551.59;5105105;27;20929;-50
2023/04/27 11:26:41;;;;;;;0.30;0.30;;;;;;;19.14;35.54;101554.34;5096690;27;20035;-49